createdAt,value
2019-02-25T00:01:35.106Z,57.90
2019-02-25T00:04:04.913Z,57.50
2019-02-25T00:06:34.669Z,57.40
2019-02-25T00:09:05.023Z,57.60
2019-02-25T00:11:36.237Z,57.70
2019-02-25T00:14:05.574Z,57.70
2019-02-25T00:16:34.936Z,57.70
2019-02-25T00:19:04.257Z,58.00
2019-02-25T00:21:33.573Z,57.60
2019-02-25T00:24:02.919Z,58.20
2019-02-25T00:26:32.161Z,58.00
2019-02-25T00:29:01.824Z,58.10
2019-02-25T00:31:31.070Z,57.90
2019-02-25T00:34:00.338Z,57.80
2019-02-25T00:36:29.602Z,57.90
2019-02-25T00:38:58.913Z,57.90
2019-02-25T00:41:28.191Z,58.20
2019-02-25T00:43:57.448Z,58.20
2019-02-25T00:46:26.714Z,58.20
2019-02-25T00:48:55.964Z,58.70
2019-02-25T00:51:26.085Z,58.70
2019-02-25T00:53:55.417Z,58.80
2019-02-25T00:56:24.692Z,59.60
2019-02-25T00:58:54.273Z,60.30
2019-02-25T01:01:23.586Z,60.00
2019-02-25T01:03:52.828Z,60.70
2019-02-25T01:06:22.105Z,61.00
2019-02-25T01:08:51.392Z,61.10
2019-02-25T01:11:20.653Z,61.00
2019-02-25T01:13:49.929Z,60.50
2019-02-25T01:16:19.645Z,60.50
2019-02-25T01:18:48.883Z,60.20
2019-02-25T01:21:18.506Z,60.10
2019-02-25T01:23:48.994Z,59.80
2019-02-25T01:26:18.369Z,59.60
2019-02-25T01:28:47.644Z,59.60
2019-02-25T01:31:16.961Z,59.70
2019-02-25T01:33:46.343Z,59.60
2019-02-25T01:36:15.742Z,59.20
2019-02-25T01:38:45.144Z,60.00
2019-02-25T01:41:14.455Z,59.90
2019-02-25T01:43:44.796Z,59.70
2019-02-25T01:46:14.508Z,60.10
2019-02-25T01:48:43.752Z,59.70
2019-02-25T01:51:14.084Z,59.50
2019-02-25T01:53:43.773Z,59.40
2019-02-25T01:56:13.292Z,59.30
2019-02-25T01:58:42.561Z,60.40
2019-02-25T02:01:11.889Z,60.40
2019-02-25T02:03:41.160Z,60.20
2019-02-25T02:06:10.468Z,61.00
2019-02-25T02:08:39.714Z,60.00
2019-02-25T02:11:09.336Z,60.10
2019-02-25T02:13:38.718Z,61.30
2019-02-25T02:16:08.002Z,60.00
2019-02-25T02:18:37.629Z,60.40
2019-02-25T02:21:06.900Z,60.00
2019-02-25T02:23:36.164Z,60.00
2019-02-25T02:26:05.463Z,60.10
2019-02-25T02:28:34.707Z,59.80
2019-02-25T02:31:03.970Z,60.10
2019-02-25T02:33:33.245Z,60.00
2019-02-25T02:36:02.535Z,60.10
2019-02-25T02:38:32.374Z,60.20
2019-02-25T02:41:01.765Z,60.50
2019-02-25T02:43:31.173Z,61.10
2019-02-25T02:46:03.376Z,61.10
2019-02-25T02:48:37.809Z,61.20
2019-02-25T02:51:07.137Z,61.10
2019-02-25T02:53:36.467Z,61.10
2019-02-25T02:56:05.721Z,61.00
2019-02-25T02:58:34.977Z,60.70
2019-02-25T03:01:04.610Z,61.00
2019-02-25T03:03:33.982Z,60.70
2019-02-25T03:06:03.348Z,60.50
2019-02-25T03:08:33.210Z,60.40
2019-02-25T03:11:02.555Z,61.30
2019-02-25T03:13:31.946Z,60.80
2019-02-25T03:16:01.222Z,60.60
2019-02-25T03:18:30.595Z,60.20
2019-02-25T03:21:00.234Z,60.40
2019-02-25T03:23:29.570Z,60.00
2019-02-25T03:25:58.839Z,60.10
2019-02-25T03:28:28.098Z,60.20
2019-02-25T03:30:57.411Z,60.70
2019-02-25T03:33:26.690Z,60.70
2019-02-25T03:35:56.742Z,60.40
2019-02-25T03:38:26.017Z,60.90
2019-02-25T03:40:55.265Z,60.40
2019-02-25T03:43:24.569Z,60.40
2019-02-25T03:45:53.806Z,60.20
2019-02-25T03:48:23.044Z,60.20
2019-02-25T03:50:52.330Z,60.70
2019-02-25T03:53:21.588Z,60.50
2019-02-25T03:55:50.960Z,60.50
2019-02-25T03:58:20.210Z,60.80
2019-02-25T04:00:49.935Z,60.50
2019-02-25T04:03:19.225Z,60.40
2019-02-25T04:05:48.486Z,60.40
2019-02-25T04:08:18.959Z,61.20
2019-02-25T04:10:48.244Z,60.90
2019-02-25T04:13:17.498Z,61.50
2019-02-25T04:15:47.120Z,61.20
2019-02-25T04:18:16.378Z,61.40
2019-02-25T04:20:45.644Z,61.70
2019-02-25T04:23:15.149Z,61.40
2019-02-25T04:25:44.406Z,61.50
2019-02-25T04:28:13.709Z,61.40
2019-02-25T04:30:43.053Z,61.30
2019-02-25T04:33:12.361Z,60.80
2019-02-25T04:35:44.030Z,60.70
2019-02-25T04:38:13.433Z,60.50
2019-02-25T04:40:42.813Z,60.40
2019-02-25T04:43:12.110Z,60.30
2019-02-25T04:45:41.372Z,60.10
2019-02-25T04:48:10.721Z,60.80
2019-02-25T04:50:39.988Z,60.70
2019-02-25T04:53:09.294Z,61.50
2019-02-25T04:55:38.558Z,61.20
2019-02-25T04:58:07.837Z,61.10
2019-02-25T05:00:37.173Z,61.20
2019-02-25T05:03:06.410Z,62.50
2019-02-25T05:05:35.769Z,61.50
2019-02-25T05:08:05.116Z,62.70
2019-02-25T05:10:34.642Z,62.20
2019-02-25T05:13:05.197Z,62.50
2019-02-25T05:15:35.366Z,63.20
2019-02-25T05:18:04.665Z,62.30
2019-02-25T05:20:34.238Z,62.00
2019-02-25T05:23:03.641Z,62.20
2019-02-25T05:25:32.914Z,62.20
2019-02-25T05:28:02.278Z,62.10
2019-02-25T05:30:31.587Z,62.00
2019-02-25T05:33:00.849Z,61.60
2019-02-25T05:35:30.104Z,61.60
2019-02-25T05:37:59.349Z,61.40
2019-02-25T05:40:28.601Z,61.10
2019-02-25T05:42:57.868Z,60.80
2019-02-25T05:45:27.190Z,61.10
2019-02-25T05:47:56.753Z,61.00
2019-02-25T05:50:25.999Z,61.30
2019-02-25T05:52:55.264Z,61.80
2019-02-25T05:55:24.520Z,62.30
2019-02-25T05:57:54.123Z,62.30
2019-02-25T06:00:25.277Z,61.70
2019-02-25T06:02:54.540Z,61.50
2019-02-25T06:05:23.808Z,61.80
2019-02-25T06:07:53.167Z,61.90
2019-02-25T06:10:22.680Z,62.70
2019-02-25T06:12:52.064Z,62.60
2019-02-25T06:15:21.329Z,63.00
2019-02-25T06:17:50.632Z,63.20
2019-02-25T06:20:19.885Z,62.80
2019-02-25T06:22:49.146Z,62.80
2019-02-25T06:25:18.600Z,62.80
2019-02-25T06:27:48.181Z,62.90
2019-02-25T06:30:17.541Z,63.30
2019-02-25T06:32:46.846Z,63.10
2019-02-25T06:35:16.128Z,63.80
2019-02-25T06:37:46.412Z,63.40
2019-02-25T06:40:17.016Z,63.20
2019-02-25T06:42:47.477Z,63.10
2019-02-25T06:45:18.793Z,63.20
2019-02-25T06:47:49.262Z,64.00
2019-02-25T06:50:19.761Z,63.70
2019-02-25T06:52:50.524Z,63.80
2019-02-25T06:55:21.002Z,63.90
2019-02-25T06:57:51.449Z,63.70
2019-02-25T07:00:21.914Z,63.80
2019-02-25T07:02:52.851Z,63.90
2019-02-25T07:05:39.646Z,63.50
2019-02-25T07:08:20.771Z,63.80
2019-02-25T07:11:05.000Z,64.10
2019-02-25T07:14:09.556Z,64.20
2019-02-25T07:16:57.302Z,63.30
2019-02-25T07:19:36.312Z,63.10
2019-02-25T07:22:29.948Z,62.90
2019-02-25T07:25:19.734Z,62.90
2019-02-25T07:28:15.482Z,62.90
2019-02-25T07:31:03.892Z,62.60
2019-02-25T07:33:57.471Z,62.50
2019-02-25T07:36:53.117Z,62.50
2019-02-25T07:39:32.156Z,62.30
2019-02-25T07:42:17.837Z,62.60
2019-02-25T07:45:03.792Z,62.30
2019-02-25T07:47:48.827Z,62.00
2019-02-25T07:50:53.423Z,62.10
2019-02-25T07:53:52.872Z,62.00
2019-02-25T07:56:37.158Z,62.30
2019-02-25T07:59:24.309Z,62.00
2019-02-25T08:02:13.468Z,61.90
2019-02-25T08:04:53.275Z,61.60
2019-02-25T08:07:38.996Z,61.40
2019-02-25T08:10:25.207Z,61.00
2019-02-25T08:13:23.924Z,61.00
2019-02-25T08:16:25.745Z,61.00
2019-02-25T08:19:18.036Z,61.20
2019-02-25T08:22:07.029Z,61.80
2019-02-25T08:24:48.194Z,61.60
2019-02-25T08:27:40.562Z,61.60
2019-02-25T08:30:21.553Z,62.00
2019-02-25T08:33:17.077Z,61.50
2019-02-25T08:36:26.924Z,61.40
2019-02-25T08:39:12.293Z,61.40
2019-02-25T08:41:53.902Z,60.80
2019-02-25T08:44:42.248Z,60.80
2019-02-25T08:47:31.816Z,60.90
2019-02-25T08:50:04.893Z,60.70
2019-02-25T08:52:35.349Z,61.50
2019-02-25T08:55:07.249Z,61.10
2019-02-25T08:57:37.709Z,60.80
2019-02-25T09:00:11.764Z,60.50
2019-02-25T09:02:42.220Z,60.40
2019-02-25T09:05:13.661Z,59.70
2019-02-25T09:07:44.136Z,59.70
2019-02-25T09:10:14.951Z,60.00
2019-02-25T09:12:45.400Z,59.00
2019-02-25T09:15:15.864Z,59.70
2019-02-25T09:17:45.436Z,59.50
2019-02-25T09:20:16.397Z,58.60
2019-02-25T09:22:47.267Z,58.50
2019-02-25T09:25:17.726Z,58.90
2019-02-25T09:27:48.246Z,58.90
2019-02-25T09:30:18.753Z,59.00
2019-02-25T09:32:49.321Z,59.00
2019-02-25T09:35:19.804Z,58.20
2019-02-25T09:37:51.409Z,57.70
2019-02-25T09:40:21.840Z,58.00
2019-02-25T09:42:52.449Z,58.10
2019-02-25T09:45:22.918Z,58.10
2019-02-25T09:47:53.433Z,57.30
2019-02-25T09:50:23.890Z,57.30
2019-02-25T09:52:54.377Z,57.60
2019-02-25T09:55:24.829Z,56.30
2019-02-25T09:57:55.642Z,56.40
2019-02-25T10:00:26.570Z,55.90
2019-02-25T10:02:57.044Z,55.80
2019-02-25T10:05:27.517Z,55.70
2019-02-25T10:07:58.026Z,55.90
2019-02-25T10:10:29.040Z,55.90
2019-02-25T10:12:59.954Z,55.90
2019-02-25T10:15:30.421Z,55.90
2019-02-25T10:18:00.884Z,54.80
2019-02-25T10:20:31.376Z,54.30
2019-02-25T10:23:01.850Z,53.30
2019-02-25T10:25:32.639Z,53.30
2019-02-25T10:28:03.496Z,52.70
2019-02-25T10:30:34.056Z,51.70
2019-02-25T10:33:04.492Z,51.00
2019-02-25T10:35:35.045Z,50.00
2019-02-25T10:38:06.334Z,49.50
2019-02-25T10:40:37.009Z,50.20
2019-02-25T10:43:07.460Z,48.80
2019-02-25T10:45:39.002Z,48.20
2019-02-25T10:48:11.061Z,48.10
2019-02-25T10:50:41.564Z,48.10
2019-02-25T10:53:13.639Z,48.10
2019-02-25T10:55:50.935Z,47.60
2019-02-25T10:58:21.973Z,48.20
2019-02-25T11:00:52.464Z,47.50
2019-02-25T11:03:23.304Z,47.60
2019-02-25T11:05:54.458Z,46.00
2019-02-25T11:08:26.177Z,45.10
2019-02-25T11:11:00.710Z,44.10
2019-02-25T11:13:31.962Z,43.80
2019-02-25T11:16:03.926Z,42.80
2019-02-25T11:18:34.444Z,42.90
2019-02-25T11:21:06.168Z,41.80
2019-02-25T11:23:37.492Z,43.30
2019-02-25T11:26:09.323Z,41.50
2019-02-25T11:28:41.228Z,40.50
2019-02-25T11:31:12.643Z,39.80
2019-02-25T11:33:43.543Z,38.60
2019-02-25T11:36:15.407Z,37.50
2019-02-25T11:38:47.459Z,37.40
2019-02-25T11:41:17.905Z,36.00
2019-02-25T11:43:50.486Z,36.60
2019-02-25T11:46:20.879Z,36.40
2019-02-25T11:48:51.483Z,35.90
2019-02-25T11:51:22.064Z,35.20
2019-02-25T11:53:52.522Z,34.40
2019-02-25T11:56:23.001Z,33.20
2019-02-25T11:58:53.573Z,33.20
2019-02-25T12:01:24.180Z,32.40
2019-02-25T12:03:54.613Z,32.80
2019-02-25T12:06:25.391Z,32.60
2019-02-25T12:08:55.956Z,31.60
2019-02-25T12:11:26.440Z,30.90
2019-02-25T12:13:56.951Z,31.40
2019-02-25T12:16:27.500Z,31.20
2019-02-25T12:18:57.970Z,30.80
2019-02-25T12:21:28.696Z,30.80
2019-02-25T12:23:59.432Z,29.60
2019-02-25T12:26:29.948Z,29.80
2019-02-25T12:29:00.404Z,30.00
2019-02-25T12:31:30.857Z,30.20
2019-02-25T12:34:01.506Z,30.20
2019-02-25T12:36:31.949Z,30.60
2019-02-25T12:39:02.410Z,29.80
2019-02-25T12:41:34.814Z,29.90
2019-02-25T12:44:05.393Z,29.50
2019-02-25T12:46:35.840Z,28.90
2019-02-25T12:49:06.333Z,28.90
2019-02-25T12:51:36.865Z,28.70
2019-02-25T12:54:07.509Z,28.60
2019-02-25T12:56:38.342Z,28.40
2019-02-25T12:59:08.826Z,28.00
2019-02-25T13:01:39.971Z,27.70
2019-02-25T13:04:10.510Z,27.70
2019-02-25T13:06:41.092Z,28.30
2019-02-25T13:09:15.451Z,28.10
2019-02-25T13:11:45.920Z,27.20
2019-02-25T13:14:16.788Z,27.80
2019-02-25T13:16:47.254Z,28.40
2019-02-25T13:19:17.700Z,28.00
2019-02-25T13:21:48.259Z,28.10
2019-02-25T13:24:18.730Z,27.90
2019-02-25T13:26:49.254Z,27.50
2019-02-25T13:29:20.078Z,27.10
2019-02-25T13:31:50.631Z,27.50
2019-02-25T13:34:21.216Z,27.40
2019-02-25T13:36:51.837Z,26.80
2019-02-25T13:39:22.631Z,26.80
2019-02-25T13:41:53.201Z,26.80
2019-02-25T13:44:23.818Z,26.30
2019-02-25T13:46:54.378Z,26.80
2019-02-25T13:49:24.969Z,26.70
2019-02-25T13:51:56.614Z,26.60
2019-02-25T13:54:29.342Z,26.90
2019-02-25T13:56:59.719Z,27.20
2019-02-25T13:59:30.214Z,27.20
2019-02-25T14:02:01.135Z,26.80
2019-02-25T14:04:32.753Z,26.80
2019-02-25T14:07:03.662Z,27.10
2019-02-25T14:11:16.323Z,26.90
2019-02-25T14:13:46.912Z,28.00
2019-02-25T14:16:20.389Z,28.20
2019-02-25T14:19:52.317Z,28.80
2019-02-25T14:22:22.852Z,30.90
2019-02-25T14:24:53.629Z,32.30
2019-02-25T14:27:24.089Z,33.80
2019-02-25T14:29:54.541Z,35.50
2019-02-25T14:52:55.371Z,41.80
2019-02-25T14:55:26.028Z,41.50
2019-02-25T14:57:59.883Z,41.90
2019-02-25T15:00:38.998Z,42.50
2019-02-25T15:03:09.713Z,42.60
2019-02-25T15:05:40.528Z,42.50
2019-02-25T15:08:11.118Z,42.60
2019-02-25T15:10:42.951Z,42.80
2019-02-25T15:13:13.702Z,43.30
2019-02-25T15:15:45.790Z,43.40
2019-02-25T15:18:16.867Z,43.90
2019-02-25T15:20:48.954Z,43.80
2019-02-25T15:23:23.098Z,43.70
2019-02-25T15:25:51.826Z,43.70
2019-02-25T15:28:22.920Z,44.30
2019-02-25T15:30:53.755Z,43.20
2019-02-25T15:33:24.561Z,43.60
2019-02-25T15:35:55.052Z,43.50
2019-02-25T15:38:28.699Z,44.20
2019-02-25T15:40:58.320Z,44.50
2019-02-25T15:43:30.920Z,44.60
2019-02-25T15:46:01.590Z,45.40
2019-02-25T15:48:32.783Z,45.30
2019-02-25T15:51:04.633Z,45.80
2019-02-25T15:53:35.136Z,45.90
2019-02-25T15:56:08.078Z,46.60
2019-02-25T15:58:39.346Z,46.60
2019-02-25T16:01:11.366Z,47.50
2019-02-25T16:03:43.075Z,47.30
2019-02-25T16:06:13.724Z,47.70
2019-02-25T16:08:45.265Z,48.20
2019-02-25T16:11:18.789Z,48.30
2019-02-25T16:13:49.442Z,48.70
2019-02-25T16:16:20.495Z,48.90
2019-02-25T16:18:53.467Z,49.10
2019-02-25T16:21:24.495Z,49.30
2019-02-25T16:23:59.331Z,49.60
2019-02-25T16:26:28.005Z,49.70
2019-02-25T16:29:06.433Z,49.80
2019-02-25T16:31:37.609Z,50.00
2019-02-25T16:34:09.691Z,50.50
2019-02-25T16:36:40.854Z,50.70
2019-02-25T16:39:11.347Z,50.80
2019-02-25T16:41:43.433Z,51.10
2019-02-25T16:44:14.464Z,51.20
2019-02-25T16:46:46.707Z,51.40
2019-02-25T16:49:17.300Z,51.50
2019-02-25T16:51:47.863Z,51.50
2019-02-25T16:54:20.638Z,51.80
2019-02-25T16:56:50.637Z,52.00
2019-02-25T16:59:23.015Z,52.30
2019-02-25T17:01:55.787Z,52.60
2019-02-25T17:04:27.993Z,52.90
2019-02-25T17:06:59.999Z,53.10
2019-02-25T17:09:34.025Z,53.40
2019-02-25T17:12:06.672Z,53.70
2019-02-25T17:14:40.073Z,54.00
2019-02-25T17:17:09.631Z,55.70
2019-02-25T17:19:40.087Z,55.10
2019-02-25T17:22:10.808Z,54.80
2019-02-25T17:24:41.296Z,55.00
2019-02-25T17:27:12.419Z,55.10
2019-02-25T17:29:44.837Z,55.50
2019-02-25T17:32:18.901Z,55.60
2019-02-25T17:34:49.349Z,55.60
2019-02-25T17:37:49.462Z,55.80
2019-02-25T17:40:20.019Z,55.80
2019-02-25T17:42:53.460Z,56.00
2019-02-25T17:45:25.091Z,56.20
2019-02-25T17:47:58.433Z,56.50
2019-02-25T17:50:34.243Z,56.80
2019-02-25T17:53:05.014Z,57.00
2019-02-25T17:55:36.333Z,56.80
2019-02-25T17:58:07.638Z,56.80
2019-02-25T18:00:42.322Z,56.80
2019-02-25T18:03:12.890Z,56.90
2019-02-25T18:05:44.418Z,57.30
2019-02-25T18:08:15.489Z,57.20
2019-02-25T18:10:47.475Z,57.40
2019-02-25T18:13:21.970Z,57.70
2019-02-25T18:15:56.207Z,58.20
2019-02-25T18:18:26.780Z,58.60
2019-02-25T18:20:57.281Z,58.60
2019-02-25T18:23:27.956Z,58.70
2019-02-25T18:25:58.862Z,59.10
2019-02-25T18:28:29.436Z,59.40
2019-02-25T18:31:01.669Z,59.00
2019-02-25T18:33:33.433Z,59.00
2019-02-25T18:36:05.081Z,59.40
2019-02-25T18:38:40.500Z,59.40
2019-02-25T18:41:10.953Z,59.30
2019-02-25T18:43:42.986Z,59.60
2019-02-25T18:46:13.649Z,59.80
2019-02-25T18:48:44.639Z,59.90
2019-02-25T18:51:16.092Z,59.60
2019-02-25T18:53:46.768Z,60.10
2019-02-25T18:56:18.584Z,59.80
2019-02-25T18:58:50.461Z,59.80
2019-02-25T19:01:21.395Z,59.70
2019-02-25T19:03:52.684Z,60.00
2019-02-25T19:06:25.629Z,60.10
2019-02-25T19:08:58.151Z,60.00
2019-02-25T19:11:28.411Z,60.10
2019-02-25T19:14:01.766Z,60.20
2019-02-25T19:16:31.245Z,60.30
2019-02-25T19:19:03.967Z,60.40
2019-02-25T19:21:34.172Z,60.30
2019-02-25T19:24:14.220Z,60.50
2019-02-25T19:30:43.307Z,61.30
2019-02-25T19:33:13.932Z,62.00
2019-02-25T19:35:44.526Z,61.40
2019-02-25T19:38:17.603Z,61.30
2019-02-25T19:40:51.305Z,61.30
2019-02-25T19:43:20.275Z,61.50
2019-02-25T19:45:50.790Z,61.80
2019-02-25T19:48:25.791Z,61.90
2019-02-25T19:50:54.609Z,61.90
2019-02-25T19:53:26.944Z,62.20
2019-02-25T19:55:57.517Z,62.30
2019-02-25T19:58:31.665Z,62.80
2019-02-25T20:01:01.174Z,62.90
2019-02-25T20:03:33.054Z,63.10
2019-02-25T20:06:04.869Z,63.20
2019-02-25T20:08:35.382Z,63.80
2019-02-25T20:11:09.230Z,63.70
2019-02-25T20:13:40.537Z,64.00
2019-02-25T20:16:15.821Z,64.00
2019-02-25T20:18:43.248Z,64.20
2019-02-25T20:21:14.136Z,64.40
2019-02-25T20:23:45.380Z,64.50
2019-02-25T20:26:17.709Z,64.70
2019-02-25T20:28:50.566Z,65.00
2019-02-25T20:31:21.362Z,65.20
2019-02-25T20:33:53.083Z,65.10
2019-02-25T20:36:25.921Z,65.40
2019-02-25T20:38:56.832Z,65.40
2019-02-25T20:41:28.837Z,65.50
2019-02-25T20:44:01.050Z,66.00
2019-02-25T20:46:34.835Z,66.10
2019-02-25T20:49:05.239Z,66.20
2019-02-25T20:51:36.176Z,67.20
2019-02-25T20:54:08.843Z,66.60
2019-02-25T20:56:39.433Z,66.70
2019-02-25T20:59:10.047Z,66.90
2019-02-25T21:01:44.064Z,67.10
2019-02-25T21:04:15.688Z,67.20
2019-02-25T21:06:46.646Z,67.50
2019-02-25T21:09:17.274Z,67.70
2019-02-25T21:11:47.876Z,67.90
2019-02-25T21:14:18.409Z,68.10
2019-02-25T21:16:48.926Z,68.10
2019-02-25T21:19:20.102Z,68.20
2019-02-25T21:21:55.024Z,68.40
2019-02-25T21:24:23.177Z,68.40
2019-02-25T21:26:57.096Z,68.60
2019-02-25T21:29:28.951Z,68.70
2019-02-25T21:31:59.653Z,69.00
2019-02-25T21:34:31.219Z,69.20
2019-02-25T21:37:03.055Z,69.30
2019-02-25T21:39:36.520Z,69.50
2019-02-25T21:42:10.653Z,69.60
2019-02-25T21:44:39.160Z,69.70
2019-02-25T21:47:09.623Z,69.70
2019-02-25T21:49:40.584Z,69.50
2019-02-25T21:52:13.614Z,70.00
2019-02-25T21:54:44.944Z,70.00
2019-02-25T21:57:15.817Z,70.20
2019-02-25T21:59:46.666Z,71.10
2019-02-25T22:02:17.153Z,70.80
2019-02-25T22:04:49.658Z,71.00
2019-02-25T22:07:24.396Z,72.00
2019-02-25T22:09:52.611Z,71.10
2019-02-25T22:12:23.167Z,71.10
2019-02-25T22:14:53.982Z,71.10
2019-02-25T22:17:25.295Z,71.10
2019-02-25T22:19:57.145Z,71.00
2019-02-25T22:22:29.520Z,70.90
2019-02-25T22:25:05.917Z,71.20
2019-02-25T22:27:35.316Z,71.20
2019-02-25T22:30:09.118Z,71.70
2019-02-25T22:32:40.784Z,72.00
2019-02-25T22:35:12.825Z,72.00
2019-02-25T22:37:49.322Z,72.00
2019-02-25T22:40:19.259Z,72.00
2019-02-25T22:42:52.151Z,72.00
2019-02-25T22:45:22.549Z,72.00
2019-02-25T22:47:53.056Z,72.30
2019-02-25T22:50:23.560Z,72.40
2019-02-25T22:53:00.592Z,72.60
2019-02-25T22:55:47.286Z,72.60
2019-02-25T22:58:38.348Z,72.60
2019-02-25T23:01:20.929Z,72.70
2019-02-25T23:03:54.525Z,73.00
2019-02-25T23:06:25.359Z,73.10
2019-02-25T23:08:56.432Z,73.40
2019-02-25T23:11:27.281Z,73.30
2019-02-25T23:13:57.736Z,73.40
2019-02-25T23:16:28.258Z,73.60
2019-02-25T23:18:58.948Z,73.50
2019-02-25T23:21:31.347Z,73.70
2019-02-25T23:24:02.991Z,73.60
2019-02-25T23:26:35.085Z,73.60
2019-02-25T23:29:05.613Z,74.10
2019-02-25T23:31:36.061Z,74.10
2019-02-25T23:34:10.278Z,74.10
2019-02-25T23:36:43.016Z,74.60
2019-02-25T23:39:12.385Z,74.50
2019-02-25T23:41:43.996Z,74.40
2019-02-25T23:44:16.995Z,74.70
2019-02-25T23:46:47.173Z,74.80
2019-02-25T23:49:26.837Z,75.00
2019-02-25T23:51:49.750Z,75.40
2019-02-25T23:54:23.278Z,75.70
2019-02-25T23:56:55.169Z,75.80
2019-02-25T23:59:26.652Z,76.40
